sensor_id;sensor_type;location;lat;lon;timestamp;pressure;altitude;pressure_sealevel;temperature;humidity
39789;BME280;25478;42.626;23.320;2023-01-26T00:18:23;93464.50;;;-2.27;96.56
39789;BME280;25478;42.626;23.320;2023-01-26T00:28:36;93458.09;;;-2.29;96.87
39789;BME280;25478;42.626;23.320;2023-01-26T06:59:40;93166.72;;;-2.29;92.46
39789;BME280;25478;42.626;23.320;2023-01-26T07:02:22;93172.22;;;-2.22;91.68
39789;BME280;25478;42.626;23.320;2023-01-26T07:04:48;93163.91;;;-2.19;91.45
39789;BME280;25478;42.626;23.320;2023-01-26T07:07:14;93164.84;;;-2.15;91.57
39789;BME280;25478;42.626;23.320;2023-01-26T07:09:40;93157.47;;;-2.08;91.91
39789;BME280;25478;42.626;23.320;2023-01-26T07:12:06;93153.75;;;-2.02;91.61
39789;BME280;25478;42.626;23.320;2023-01-26T07:14:32;93152.53;;;-1.95;91.91
39789;BME280;25478;42.626;23.320;2023-01-26T07:17:06;93159.88;;;-1.89;91.26
39789;BME280;25478;42.626;23.320;2023-01-26T07:19:32;93145.16;;;-1.88;90.50
39789;BME280;25478;42.626;23.320;2023-01-26T07:21:58;93153.38;;;-1.86;90.27
39789;BME280;25478;42.626;23.320;2023-01-26T07:28:17;93141.13;;;-1.81;90.63
39789;BME280;25478;42.626;23.320;2023-01-26T07:30:43;93142.03;;;-1.77;90.37
39789;BME280;25478;42.626;23.320;2023-01-26T07:33:08;93131.44;;;-1.75;89.67
39789;BME280;25478;42.626;23.320;2023-01-26T07:35:34;93135.88;;;-1.67;90.04
39789;BME280;25478;42.626;23.320;2023-01-26T07:38:02;93138.31;;;-1.62;89.49
39789;BME280;25478;42.626;23.320;2023-01-26T07:40:28;93116.31;;;-1.68;89.03
39789;BME280;25478;42.626;23.320;2023-01-26T07:42:54;93129.28;;;-1.51;88.13
39789;BME280;25478;42.626;23.320;2023-01-26T07:45:44;93111.75;;;-1.62;88.67
39789;BME280;25478;42.626;23.320;2023-01-26T07:48:10;93135.06;;;-1.45;88.52
39789;BME280;25478;42.626;23.320;2023-01-26T07:50:36;93132.19;;;-1.44;87.90
39789;BME280;25478;42.626;23.320;2023-01-26T07:53:01;93141.63;;;-1.39;87.79
39789;BME280;25478;42.626;23.320;2023-01-26T07:55:27;93137.38;;;-1.35;87.28
39789;BME280;25478;42.626;23.320;2023-01-26T07:57:52;93141.22;;;-1.32;87.13
39789;BME280;25478;42.626;23.320;2023-01-26T08:00:18;93131.19;;;-1.34;86.44
39789;BME280;25478;42.626;23.320;2023-01-26T08:02:48;93126.94;;;-1.30;86.31
39789;BME280;25478;42.626;23.320;2023-01-26T08:05:14;93130.72;;;-1.27;86.86
39789;BME280;25478;42.626;23.320;2023-01-26T08:07:39;93134.06;;;-1.27;86.66
39789;BME280;25478;42.626;23.320;2023-01-26T08:10:05;93121.47;;;-1.28;86.56
39789;BME280;25478;42.626;23.320;2023-01-26T08:12:34;93126.34;;;-1.27;85.93
39789;BME280;25478;42.626;23.320;2023-01-26T08:14:59;93114.03;;;-1.30;86.40
39789;BME280;25478;42.626;23.320;2023-01-26T08:17:28;93103.66;;;-1.38;86.13
39789;BME280;25478;42.626;23.320;2023-01-26T08:19:53;93107.19;;;-1.34;87.04
39789;BME280;25478;42.626;23.320;2023-01-26T08:22:19;93111.75;;;-1.31;87.01
39789;BME280;25478;42.626;23.320;2023-01-26T08:24:44;93109.28;;;-1.36;86.84
39789;BME280;25478;42.626;23.320;2023-01-26T08:27:10;93120.25;;;-1.31;86.73
39789;BME280;25478;42.626;23.320;2023-01-26T08:29:35;93107.94;;;-1.34;87.19
39789;BME280;25478;42.626;23.320;2023-01-26T08:32:00;93110.22;;;-1.32;87.35
39789;BME280;25478;42.626;23.320;2023-01-26T08:34:26;93111.44;;;-1.30;87.40
39789;BME280;25478;42.626;23.320;2023-01-26T08:36:51;93094.88;;;-1.29;87.46
39789;BME280;25478;42.626;23.320;2023-01-26T08:39:17;93097.31;;;-1.32;87.24
39789;BME280;25478;42.626;23.320;2023-01-26T08:41:42;93098.84;;;-1.31;87.82
39789;BME280;25478;42.626;23.320;2023-01-26T08:44:09;93078.72;;;-1.43;87.60
39789;BME280;25478;42.626;23.320;2023-01-26T08:46:35;93090.75;;;-1.38;87.95
39789;BME280;25478;42.626;23.320;2023-01-26T08:49:00;93097.00;;;-1.31;87.48
39789;BME280;25478;42.626;23.320;2023-01-26T08:51:26;93094.28;;;-1.34;87.21
39789;BME280;25478;42.626;23.320;2023-01-26T08:53:51;93081.75;;;-1.50;87.57
39789;BME280;25478;42.626;23.320;2023-01-26T08:56:18;93110.56;;;-1.25;87.14
39789;BME280;25478;42.626;23.320;2023-01-26T08:58:44;93104.63;;;-1.26;87.39
39789;BME280;25478;42.626;23.320;2023-01-26T09:01:11;93089.72;;;-1.29;87.20
39789;BME280;25478;42.626;23.320;2023-01-26T09:03:37;93099.78;;;-1.19;87.32
39789;BME280;25478;42.626;23.320;2023-01-26T09:06:05;93106.19;;;-1.16;87.04
39789;BME280;25478;42.626;23.320;2023-01-26T09:08:31;93103.44;;;-1.11;87.52
39789;BME280;25478;42.626;23.320;2023-01-26T09:10:57;93090.03;;;-1.22;87.47
39789;BME280;25478;42.626;23.320;2023-01-26T09:13:22;93099.53;;;-1.08;86.60
39789;BME280;25478;42.626;23.320;2023-01-26T09:15:48;93099.78;;;-1.10;87.24
39789;BME280;25478;42.626;23.320;2023-01-26T09:18:14;93094.94;;;-1.11;86.90
39789;BME280;25478;42.626;23.320;2023-01-26T09:20:39;93101.94;;;-1.03;86.83
39789;BME280;25478;42.626;23.320;2023-01-26T09:23:06;93088.44;;;-1.00;85.75
39789;BME280;25478;42.626;23.320;2023-01-26T09:25:35;93086.78;;;-0.96;86.01
39789;BME280;25478;42.626;23.320;2023-01-26T09:28:01;93084.06;;;-0.91;86.04
39789;BME280;25478;42.626;23.320;2023-01-26T09:30:27;93072.97;;;-0.92;85.81
39789;BME280;25478;42.626;23.320;2023-01-26T09:32:57;93071.72;;;-0.86;85.77
39789;BME280;25478;42.626;23.320;2023-01-26T09:35:23;93067.31;;;-0.85;85.92
39789;BME280;25478;42.626;23.320;2023-01-26T09:37:48;93060.81;;;-0.82;86.28
39789;BME280;25478;42.626;23.320;2023-01-26T09:40:23;93048.31;;;-0.89;85.93
39789;BME280;25478;42.626;23.320;2023-01-26T09:45:45;93069.78;;;-0.80;86.23
39789;BME280;25478;42.626;23.320;2023-01-26T09:48:42;93067.50;;;-0.81;86.39
39789;BME280;25478;42.626;23.320;2023-01-26T09:51:13;93035.72;;;-0.91;86.68
39789;BME280;25478;42.626;23.320;2023-01-26T09:53:47;93041.19;;;-0.75;85.78
39789;BME280;25478;42.626;23.320;2023-01-26T09:56:17;93039.97;;;-0.69;86.18
39789;BME280;25478;42.626;23.320;2023-01-26T09:58:48;93037.38;;;-0.69;85.88
39789;BME280;25478;42.626;23.320;2023-01-26T10:04:36;93041.03;;;-0.61;86.19
39789;BME280;25478;42.626;23.320;2023-01-26T10:07:09;93037.25;;;-0.64;85.45
39789;BME280;25478;42.626;23.320;2023-01-26T10:09:46;93040.59;;;-0.63;85.62
39789;BME280;25478;42.626;23.320;2023-01-26T10:12:20;93045.00;;;-0.64;85.38
39789;BME280;25478;42.626;23.320;2023-01-26T10:15:17;93034.22;;;-0.66;85.84
39789;BME280;25478;42.626;23.320;2023-01-26T10:17:48;93027.66;;;-0.72;85.79
39789;BME280;25478;42.626;23.320;2023-01-26T10:20:33;93015.34;;;-0.66;85.74
39789;BME280;25478;42.626;23.320;2023-01-26T10:23:13;92998.59;;;-0.69;85.71
39789;BME280;25478;42.626;23.320;2023-01-26T10:25:41;92993.44;;;-0.69;85.51
39789;BME280;25478;42.626;23.320;2023-01-26T10:30:51;92983.09;;;-0.69;85.76
39789;BME280;25478;42.626;23.320;2023-01-26T10:33:30;92986.16;;;-0.67;85.88
39789;BME280;25478;42.626;23.320;2023-01-26T10:35:58;92968.19;;;-0.63;85.84
39789;BME280;25478;42.626;23.320;2023-01-26T10:38:37;92972.47;;;-0.59;85.52
39789;BME280;25478;42.626;23.320;2023-01-26T10:41:25;92956.63;;;-0.57;86.00
39789;BME280;25478;42.626;23.320;2023-01-26T10:43:51;92945.03;;;-0.51;85.10
39789;BME280;25478;42.626;23.320;2023-01-26T10:46:37;92942.63;;;-0.47;84.87
39789;BME280;25478;42.626;23.320;2023-01-26T10:51:34;92935.16;;;-0.40;84.40
39789;BME280;25478;42.626;23.320;2023-01-26T10:54:23;92931.78;;;-0.32;83.53
39789;BME280;25478;42.626;23.320;2023-01-26T10:56:57;92920.06;;;-0.30;83.34
39789;BME280;25478;42.626;23.320;2023-01-26T10:59:39;92911.81;;;-0.23;83.14
39789;BME280;25478;42.626;23.320;2023-01-26T11:04:37;92895.34;;;-0.18;82.90
39789;BME280;25478;42.626;23.320;2023-01-26T11:07:27;92900.06;;;-0.12;82.46
39789;BME280;25478;42.626;23.320;2023-01-26T11:09:54;92896.06;;;-0.09;82.90
39789;BME280;25478;42.626;23.320;2023-01-26T11:12:21;92877.81;;;-0.04;82.44
39789;BME280;25478;42.626;23.320;2023-01-26T11:15:03;92881.28;;;0.00;82.47
39789;BME280;25478;42.626;23.320;2023-01-26T11:18:00;92875.66;;;-0.02;81.73
39789;BME280;25478;42.626;23.320;2023-01-26T11:32:15;92856.13;;;0.09;81.41
39789;BME280;25478;42.626;23.320;2023-01-26T11:37:38;92841.22;;;0.06;81.23
39789;BME280;25478;42.626;23.320;2023-01-26T11:51:11;92838.53;;;-0.06;82.17
39789;BME280;25478;42.626;23.320;2023-01-26T11:54:35;92836.41;;;-0.04;82.05
39789;BME280;25478;42.626;23.320;2023-01-26T12:02:31;92830.88;;;-0.23;82.72
39789;BME280;25478;42.626;23.320;2023-01-26T12:05:12;92827.53;;;-0.24;82.83
39789;BME280;25478;42.626;23.320;2023-01-26T12:07:58;92824.00;;;-0.19;83.60
39789;BME280;25478;42.626;23.320;2023-01-26T12:10:34;92803.97;;;-0.31;83.74
39789;BME280;25478;42.626;23.320;2023-01-26T12:13:10;92808.03;;;-0.21;83.78
39789;BME280;25478;42.626;23.320;2023-01-26T12:15:47;92796.28;;;-0.19;83.89
39789;BME280;25478;42.626;23.320;2023-01-26T12:18:28;92798.00;;;-0.23;83.41
39789;BME280;25478;42.626;23.320;2023-01-26T12:21:00;92795.72;;;-0.24;83.97
39789;BME280;25478;42.626;23.320;2023-01-26T12:24:45;92792.38;;;-0.25;84.38
39789;BME280;25478;42.626;23.320;2023-01-26T12:26:44;92782.31;;;-0.26;84.51
39789;BME280;25478;42.626;23.320;2023-01-26T12:29:26;92779.88;;;-0.23;84.46
39789;BME280;25478;42.626;23.320;2023-01-26T12:34:29;92771.38;;;-0.23;84.40
39789;BME280;25478;42.626;23.320;2023-01-26T12:39:30;92762.97;;;-0.20;84.56
39789;BME280;25478;42.626;23.320;2023-01-26T12:44:37;92771.63;;;-0.16;85.41
39789;BME280;25478;42.626;23.320;2023-01-26T12:47:13;92750.53;;;-0.27;84.88
39789;BME280;25478;42.626;23.320;2023-01-26T12:52:32;92770.63;;;-0.03;85.34
39789;BME280;25478;42.626;23.320;2023-01-26T12:57:36;92762.16;;;-0.12;85.61
39789;BME280;25478;42.626;23.320;2023-01-26T13:00:11;92760.16;;;-0.07;85.79
39789;BME280;25478;42.626;23.320;2023-01-26T13:02:44;92740.88;;;-0.18;85.82
39789;BME280;25478;42.626;23.320;2023-01-26T13:05:26;92753.31;;;-0.11;85.53
39789;BME280;25478;42.626;23.320;2023-01-26T13:07:52;92760.66;;;-0.13;86.71
39789;BME280;25478;42.626;23.320;2023-01-26T13:10:23;92755.16;;;-0.12;86.29
39789;BME280;25478;42.626;23.320;2023-01-26T13:15:31;92752.00;;;-0.17;86.59
39789;BME280;25478;42.626;23.320;2023-01-26T13:18:01;92744.53;;;-0.19;87.11
39789;BME280;25478;42.626;23.320;2023-01-26T13:20:42;92759.47;;;-0.16;86.41
39789;BME280;25478;42.626;23.320;2023-01-26T13:23:42;92759.91;;;-0.14;86.78
39789;BME280;25478;42.626;23.320;2023-01-26T13:28:36;92742.44;;;-0.17;86.82
39789;BME280;25478;42.626;23.320;2023-01-26T13:31:04;92744.69;;;-0.15;87.08
39789;BME280;25478;42.626;23.320;2023-01-26T13:33:30;92739.06;;;-0.17;86.89
39789;BME280;25478;42.626;23.320;2023-01-26T13:35:57;92740.28;;;-0.15;86.86
39789;BME280;25478;42.626;23.320;2023-01-26T13:38:35;92743.94;;;-0.16;87.41
39789;BME280;25478;42.626;23.320;2023-01-26T13:41:08;92739.53;;;-0.15;87.21
39789;BME280;25478;42.626;23.320;2023-01-26T13:51:12;92738.75;;;-0.16;87.16
39789;BME280;25478;42.626;23.320;2023-01-26T13:53:42;92735.53;;;-0.13;87.03
39789;BME280;25478;42.626;23.320;2023-01-26T13:56:23;92731.00;;;-0.16;87.46
39789;BME280;25478;42.626;23.320;2023-01-26T13:58:49;92727.03;;;-0.13;87.11
39789;BME280;25478;42.626;23.320;2023-01-26T14:01:15;92722.59;;;-0.13;86.96
39789;BME280;25478;42.626;23.320;2023-01-26T14:03:42;92711.25;;;-0.20;86.25
39789;BME280;25478;42.626;23.320;2023-01-26T14:06:16;92709.09;;;-0.18;86.95
39789;BME280;25478;42.626;23.320;2023-01-26T14:08:50;92714.25;;;-0.18;86.59
39789;BME280;25478;42.626;23.320;2023-01-26T14:11:19;92712.56;;;-0.14;87.11
39789;BME280;25478;42.626;23.320;2023-01-26T14:13:49;92682.97;;;-0.25;86.46
39789;BME280;25478;42.626;23.320;2023-01-26T14:16:27;92677.34;;;-0.28;86.84
39789;BME280;25478;42.626;23.320;2023-01-26T14:19:03;92673.47;;;-0.34;86.71
39789;BME280;25478;42.626;23.320;2023-01-26T14:21:29;92701.19;;;-0.01;86.58
39789;BME280;25478;42.626;23.320;2023-01-26T14:23:57;92700.91;;;0.01;86.91
39789;BME280;25478;42.626;23.320;2023-01-26T14:26:32;92691.84;;;0.07;86.10
39789;BME280;25478;42.626;23.320;2023-01-26T14:29:00;92681.38;;;0.03;85.85
39789;BME280;25478;42.626;23.320;2023-01-26T14:31:28;92682.75;;;0.21;85.47
39789;BME280;25478;42.626;23.320;2023-01-26T14:33:56;92683.06;;;0.20;84.21
39789;BME280;25478;42.626;23.320;2023-01-26T14:36:28;92686.34;;;0.29;84.42
39789;BME280;25478;42.626;23.320;2023-01-26T14:38:56;92682.84;;;0.25;84.15
39789;BME280;25478;42.626;23.320;2023-01-26T14:41:23;92680.97;;;0.34;84.24
39789;BME280;25478;42.626;23.320;2023-01-26T14:43:51;92682.28;;;0.40;84.06
39789;BME280;25478;42.626;23.320;2023-01-26T14:46:22;92679.81;;;0.44;83.69
39789;BME280;25478;42.626;23.320;2023-01-26T14:48:56;92685.09;;;0.47;84.04
39789;BME280;25478;42.626;23.320;2023-01-26T14:51:23;92685.59;;;0.41;84.02
39789;BME280;25478;42.626;23.320;2023-01-26T14:53:51;92683.25;;;0.48;83.38
39789;BME280;25478;42.626;23.320;2023-01-26T14:56:19;92683.69;;;0.50;83.38
39789;BME280;25478;42.626;23.320;2023-01-26T14:58:50;92666.88;;;0.44;82.75
39789;BME280;25478;42.626;23.320;2023-01-26T15:01:21;92691.38;;;0.59;82.55
39789;BME280;25478;42.626;23.320;2023-01-26T15:03:48;92672.81;;;0.56;82.27
39789;BME280;25478;42.626;23.320;2023-01-26T15:06:20;92666.31;;;0.50;82.28
39789;BME280;25478;42.626;23.320;2023-01-26T15:09:05;92670.47;;;0.64;82.07
39789;BME280;25478;42.626;23.320;2023-01-26T15:11:41;92675.00;;;0.67;82.43
39789;BME280;25478;42.626;23.320;2023-01-26T15:14:36;92675.44;;;0.69;82.01
39789;BME280;25478;42.626;23.320;2023-01-26T15:19:53;92656.34;;;0.73;81.82
39789;BME280;25478;42.626;23.320;2023-01-26T15:22:21;92657.63;;;0.79;81.89
39789;BME280;25478;42.626;23.320;2023-01-26T15:24:58;92649.88;;;0.79;81.86
39789;BME280;25478;42.626;23.320;2023-01-26T15:27:29;92648.59;;;0.86;81.36
39789;BME280;25478;42.626;23.320;2023-01-26T15:29:58;92658.19;;;0.85;81.23
39789;BME280;25478;42.626;23.320;2023-01-26T15:32:30;92647.84;;;0.85;81.36
39789;BME280;25478;42.626;23.320;2023-01-26T15:35:22;92640.50;;;0.87;80.84
39789;BME280;25478;42.626;23.320;2023-01-26T15:37:58;92649.34;;;0.86;81.43
39789;BME280;25478;42.626;23.320;2023-01-26T15:40:23;92627.31;;;0.80;81.17
39789;BME280;25478;42.626;23.320;2023-01-26T15:42:49;92628.63;;;0.86;80.64
39789;BME280;25478;42.626;23.320;2023-01-26T15:45:21;92632.91;;;0.82;80.96
39789;BME280;25478;42.626;23.320;2023-01-26T15:47:48;92619.97;;;0.70;81.24
39789;BME280;25478;42.626;23.320;2023-01-26T15:50:14;92611.34;;;0.78;80.97
39789;BME280;25478;42.626;23.320;2023-01-26T15:52:40;92615.75;;;0.77;81.34
39789;BME280;25478;42.626;23.320;2023-01-26T15:55:35;92606.56;;;0.80;80.90
39789;BME280;25478;42.626;23.320;2023-01-26T15:58:00;92598.38;;;0.78;81.08
39789;BME280;25478;42.626;23.320;2023-01-26T16:00:26;92582.94;;;0.69;80.75
39789;BME280;25478;42.626;23.320;2023-01-26T16:02:51;92601.72;;;0.78;80.80
39789;BME280;25478;42.626;23.320;2023-01-26T16:05:20;92598.72;;;0.76;80.74
39789;BME280;25478;42.626;23.320;2023-01-26T16:07:46;92594.03;;;0.82;80.55
39789;BME280;25478;42.626;23.320;2023-01-26T16:10:13;92601.06;;;0.81;80.73
39789;BME280;25478;42.626;23.320;2023-01-26T16:12:38;92587.03;;;0.82;80.40
39789;BME280;25478;42.626;23.320;2023-01-26T16:15:27;92590.38;;;0.83;80.25
39789;BME280;25478;42.626;23.320;2023-01-26T16:17:56;92592.34;;;0.86;80.42
39789;BME280;25478;42.626;23.320;2023-01-26T16:20:22;92594.59;;;0.88;80.64
39789;BME280;25478;42.626;23.320;2023-01-26T16:22:47;92590.59;;;0.90;80.62
39789;BME280;25478;42.626;23.320;2023-01-26T16:25:25;92585.75;;;0.89;79.94
39789;BME280;25478;42.626;23.320;2023-01-26T16:27:52;92530.03;;;0.58;80.18
39789;BME280;25478;42.626;23.320;2023-01-26T16:30:18;92567.06;;;0.83;80.33
39789;BME280;25478;42.626;23.320;2023-01-26T16:32:44;92582.72;;;0.87;81.38
39789;BME280;25478;42.626;23.320;2023-01-26T16:35:11;92556.81;;;0.62;81.59
39789;BME280;25478;42.626;23.320;2023-01-26T16:37:37;92574.63;;;0.64;82.63
39789;BME280;25478;42.626;23.320;2023-01-26T16:40:03;92585.31;;;0.62;83.78
39789;BME280;25478;42.626;23.320;2023-01-26T16:42:28;92585.94;;;0.47;84.33
39789;BME280;25478;42.626;23.320;2023-01-26T16:44:54;92579.44;;;0.28;85.38
39789;BME280;25478;42.626;23.320;2023-01-26T16:47:20;92584.16;;;0.14;86.45
39789;BME280;25478;42.626;23.320;2023-01-26T16:49:45;92586.41;;;0.04;86.71
39789;BME280;25478;42.626;23.320;2023-01-26T16:52:11;92575.47;;;-0.02;87.92
39789;BME280;25478;42.626;23.320;2023-01-26T16:54:37;92576.88;;;-0.05;87.83
39789;BME280;25478;42.626;23.320;2023-01-26T16:57:02;92578.16;;;-0.11;88.88
39789;BME280;25478;42.626;23.320;2023-01-26T16:59:28;92563.53;;;-0.28;89.19
39789;BME280;25478;42.626;23.320;2023-01-26T17:01:54;92568.09;;;-0.24;90.21
39789;BME280;25478;42.626;23.320;2023-01-26T17:04:19;92575.47;;;-0.35;90.37
39789;BME280;25478;42.626;23.320;2023-01-26T17:06:45;92569.28;;;-0.43;91.41
39789;BME280;25478;42.626;23.320;2023-01-26T17:09:10;92563.56;;;-0.48;91.72
39789;BME280;25478;42.626;23.320;2023-01-26T17:11:36;92563.66;;;-0.57;91.94
39789;BME280;25478;42.626;23.320;2023-01-26T17:14:01;92558.53;;;-0.66;92.56
39789;BME280;25478;42.626;23.320;2023-01-26T17:16:28;92558.41;;;-0.69;93.07
39789;BME280;25478;42.626;23.320;2023-01-26T17:18:54;92552.38;;;-0.73;94.07
39789;BME280;25478;42.626;23.320;2023-01-26T17:21:20;92561.06;;;-0.78;94.38
39789;BME280;25478;42.626;23.320;2023-01-26T17:23:50;92545.09;;;-0.80;94.38
39789;BME280;25478;42.626;23.320;2023-01-26T17:26:17;92551.22;;;-0.85;95.17
39789;BME280;25478;42.626;23.320;2023-01-26T17:28:43;92550.03;;;-0.87;95.37
39789;BME280;25478;42.626;23.320;2023-01-26T17:31:11;92553.25;;;-0.90;95.73
39789;BME280;25478;42.626;23.320;2023-01-26T17:33:38;92544.47;;;-0.98;96.02
39789;BME280;25478;42.626;23.320;2023-01-26T17:36:05;92541.47;;;-1.00;95.84
39789;BME280;25478;42.626;23.320;2023-01-26T17:38:32;92535.06;;;-1.02;96.90
39789;BME280;25478;42.626;23.320;2023-01-26T17:40:58;92527.63;;;-1.04;97.25
39789;BME280;25478;42.626;23.320;2023-01-26T17:43:23;92528.41;;;-1.03;97.57
39789;BME280;25478;42.626;23.320;2023-01-26T17:45:49;92516.88;;;-1.06;97.59
39789;BME280;25478;42.626;23.320;2023-01-26T17:48:15;92505.59;;;-1.22;97.97
39789;BME280;25478;42.626;23.320;2023-01-26T17:50:47;92499.97;;;-1.24;97.98
39789;BME280;25478;42.626;23.320;2023-01-26T17:53:13;92510.81;;;-1.10;98.68
39789;BME280;25478;42.626;23.320;2023-01-26T17:55:38;92504.44;;;-1.13;98.58
39789;BME280;25478;42.626;23.320;2023-01-26T17:58:04;92507.47;;;-1.10;98.68
39789;BME280;25478;42.626;23.320;2023-01-26T18:00:36;92499.78;;;-1.19;99.07
39789;BME280;25478;42.626;23.320;2023-01-26T18:03:02;92505.69;;;-1.19;100.00
39789;BME280;25478;42.626;23.320;2023-01-26T18:05:27;92501.16;;;-1.22;99.95
39789;BME280;25478;42.626;23.320;2023-01-26T18:07:53;92502.56;;;-1.24;100.00
39789;BME280;25478;42.626;23.320;2023-01-26T18:10:19;92487.69;;;-1.27;100.00
39789;BME280;25478;42.626;23.320;2023-01-26T18:12:44;92481.16;;;-1.25;100.00
39789;BME280;25478;42.626;23.320;2023-01-26T18:15:10;92483.84;;;-1.21;100.00
39789;BME280;25478;42.626;23.320;2023-01-26T18:17:35;92475.03;;;-1.20;100.00
39789;BME280;25478;42.626;23.320;2023-01-26T18:20:03;92468.19;;;-1.16;100.00
39789;BME280;25478;42.626;23.320;2023-01-26T18:22:29;92464.38;;;-1.19;100.00
39789;BME280;25478;42.626;23.320;2023-01-26T18:24:54;92468.66;;;-1.23;100.00
39789;BME280;25478;42.626;23.320;2023-01-26T18:27:20;92465.66;;;-1.25;100.00
39789;BME280;25478;42.626;23.320;2023-01-26T18:29:46;92472.31;;;-1.24;100.00
39789;BME280;25478;42.626;23.320;2023-01-26T18:32:12;92461.41;;;-1.29;100.00
39789;BME280;25478;42.626;23.320;2023-01-26T18:34:38;92469.75;;;-1.24;100.00
39789;BME280;25478;42.626;23.320;2023-01-26T18:37:06;92462.75;;;-1.23;100.00
39789;BME280;25478;42.626;23.320;2023-01-26T18:39:32;92455.31;;;-1.25;100.00
39789;BME280;25478;42.626;23.320;2023-01-26T18:41:58;92440.31;;;-1.31;100.00
39789;BME280;25478;42.626;23.320;2023-01-26T18:44:23;92457.44;;;-1.27;100.00
39789;BME280;25478;42.626;23.320;2023-01-26T18:46:49;92446.25;;;-1.31;100.00
39789;BME280;25478;42.626;23.320;2023-01-26T18:49:15;92450.66;;;-1.31;100.00
39789;BME280;25478;42.626;23.320;2023-01-26T18:51:41;92445.22;;;-1.38;100.00
39789;BME280;25478;42.626;23.320;2023-01-26T18:54:14;92431.81;;;-1.53;100.00
39789;BME280;25478;42.626;23.320;2023-01-26T18:56:40;92446.31;;;-1.39;100.00
39789;BME280;25478;42.626;23.320;2023-01-26T18:59:05;92430.66;;;-1.43;100.00
39789;BME280;25478;42.626;23.320;2023-01-26T19:01:35;92431.31;;;-1.46;100.00
39789;BME280;25478;42.626;23.320;2023-01-26T19:04:01;92424.63;;;-1.47;100.00
39789;BME280;25478;42.626;23.320;2023-01-26T19:06:28;92412.22;;;-1.54;100.00
39789;BME280;25478;42.626;23.320;2023-01-26T19:08:58;92427.28;;;-1.56;100.00
39789;BME280;25478;42.626;23.320;2023-01-26T19:11:29;92422.75;;;-1.59;100.00
39789;BME280;25478;42.626;23.320;2023-01-26T19:13:56;92413.47;;;-1.60;100.00
39789;BME280;25478;42.626;23.320;2023-01-26T19:16:22;92403.03;;;-1.63;100.00
39789;BME280;25478;42.626;23.320;2023-01-26T19:18:48;92403.66;;;-1.66;100.00
39789;BME280;25478;42.626;23.320;2023-01-26T19:21:14;92400.34;;;-1.67;100.00
39789;BME280;25478;42.626;23.320;2023-01-26T19:23:41;92393.78;;;-1.64;100.00
39789;BME280;25478;42.626;23.320;2023-01-26T19:26:15;92393.78;;;-1.64;100.00
39789;BME280;25478;42.626;23.320;2023-01-26T19:28:42;92397.44;;;-1.65;100.00
39789;BME280;25478;42.626;23.320;2023-01-26T19:31:09;92394.28;;;-1.71;100.00
39789;BME280;25478;42.626;23.320;2023-01-26T19:33:37;92387.59;;;-1.72;100.00
39789;BME280;25478;42.626;23.320;2023-01-26T19:36:04;92396.00;;;-1.75;100.00
39789;BME280;25478;42.626;23.320;2023-01-26T19:38:31;92392.34;;;-1.74;100.00
39789;BME280;25478;42.626;23.320;2023-01-26T19:40:59;92400.25;;;-1.79;100.00
39789;BME280;25478;42.626;23.320;2023-01-26T19:43:24;92400.88;;;-1.82;100.00
39789;BME280;25478;42.626;23.320;2023-01-26T19:45:52;92395.09;;;-1.79;100.00
39789;BME280;25478;42.626;23.320;2023-01-26T19:48:19;92387.66;;;-1.81;100.00
39789;BME280;25478;42.626;23.320;2023-01-26T19:51:09;92387.22;;;-1.83;100.00
39789;BME280;25478;42.626;23.320;2023-01-26T19:53:38;92390.25;;;-1.81;100.00
39789;BME280;25478;42.626;23.320;2023-01-26T19:58:31;92379.00;;;-1.76;100.00
39789;BME280;25478;42.626;23.320;2023-01-26T20:01:02;92376.28;;;-1.80;100.00
39789;BME280;25478;42.626;23.320;2023-01-26T20:03:27;92387.94;;;-1.74;100.00
39789;BME280;25478;42.626;23.320;2023-01-26T20:05:53;92388.50;;;-1.68;100.00
39789;BME280;25478;42.626;23.320;2023-01-26T20:08:19;92380.63;;;-1.72;100.00
39789;BME280;25478;42.626;23.320;2023-01-26T20:10:44;92380.13;;;-1.65;100.00
39789;BME280;25478;42.626;23.320;2023-01-26T20:13:10;92381.94;;;-1.65;100.00
39789;BME280;25478;42.626;23.320;2023-01-26T20:15:35;92371.94;;;-1.67;100.00
39789;BME280;25478;42.626;23.320;2023-01-26T20:18:01;92364.66;;;-1.65;100.00
39789;BME280;25478;42.626;23.320;2023-01-26T20:20:28;92345.44;;;-1.76;100.00
39789;BME280;25478;42.626;23.320;2023-01-26T20:22:54;92342.88;;;-1.76;100.00
39789;BME280;25478;42.626;23.320;2023-01-26T20:25:21;92346.50;;;-1.77;100.00
39789;BME280;25478;42.626;23.320;2023-01-26T20:27:46;92354.56;;;-1.58;100.00
39789;BME280;25478;42.626;23.320;2023-01-26T20:30:12;92357.69;;;-1.52;100.00
39789;BME280;25478;42.626;23.320;2023-01-26T20:32:38;92332.34;;;-1.50;100.00
39789;BME280;25478;42.626;23.320;2023-01-26T20:35:05;92314.03;;;-1.57;100.00
39789;BME280;25478;42.626;23.320;2023-01-26T20:37:34;92322.97;;;-1.55;100.00
39789;BME280;25478;42.626;23.320;2023-01-26T20:40:00;92313.53;;;-1.51;100.00
39789;BME280;25478;42.626;23.320;2023-01-26T20:42:26;92328.38;;;-1.48;100.00
39789;BME280;25478;42.626;23.320;2023-01-26T20:44:52;92309.19;;;-1.59;100.00
39789;BME280;25478;42.626;23.320;2023-01-26T20:47:19;92335.94;;;-1.43;100.00
39789;BME280;25478;42.626;23.320;2023-01-26T20:49:47;92326.78;;;-1.40;100.00
39789;BME280;25478;42.626;23.320;2023-01-26T20:52:13;92320.22;;;-1.37;100.00
39789;BME280;25478;42.626;23.320;2023-01-26T20:54:38;92323.25;;;-1.35;100.00
39789;BME280;25478;42.626;23.320;2023-01-26T20:57:03;92332.06;;;-1.36;100.00
39789;BME280;25478;42.626;23.320;2023-01-26T20:59:29;92331.00;;;-1.35;100.00
39789;BME280;25478;42.626;23.320;2023-01-26T21:01:55;92322.72;;;-1.41;100.00
39789;BME280;25478;42.626;23.320;2023-01-26T21:04:21;92331.19;;;-1.40;100.00
39789;BME280;25478;42.626;23.320;2023-01-26T21:06:46;92313.06;;;-1.53;100.00
39789;BME280;25478;42.626;23.320;2023-01-26T21:09:12;92322.56;;;-1.45;100.00
39789;BME280;25478;42.626;23.320;2023-01-26T21:11:37;92317.41;;;-1.45;100.00
39789;BME280;25478;42.626;23.320;2023-01-26T21:14:03;92313.75;;;-1.44;100.00
39789;BME280;25478;42.626;23.320;2023-01-26T21:16:30;92310.88;;;-1.42;100.00